Terminal Aerodrome Forecast
Issued by NWS

Home | Current Version | Previous Version | Text Only | Print | Product List | Glossary On
Versions: 1 2 3 4 5 6 7 8 9 10 11 12 13 14 15 16 17 18 19 20 21 22 23 24 25 26 27 28 29 30 31 32 33 34 35 36 37 38 39 40 41 42 43 44 45 46 47 48
000
FTUS43 KGRB 131603 AAF
TAFMTW
TAF AMD
KMTW 131603Z 1316/1412 VRB04KT 5SM BR SCT010 OVC018
     FM131800 VRB04KT P6SM OVC020
     FM140000 VRB03KT P6SM SCT015 OVC035
     FM140500 VRB03KT P6SM -SHSN OVC025
     FM140900 30004KT P6SM OVC015
      TEMPO 1409/1412 5SM -FZDZ BR=

USA.gov is the U.S. government's official web portal to all federal, state and local government web resources and services.